sensor_id;sensor_type;location;lat;lon;timestamp;P1;durP1;ratioP1;P2;durP2;ratioP2
42602;SDS011;28233;55.748;48.752;2023-03-09T00:00:44;12.43;;;6.80;;
42602;SDS011;28233;55.748;48.752;2023-03-09T00:02:46;9.77;;;6.07;;
42602;SDS011;28233;55.748;48.752;2023-03-09T00:04:50;10.63;;;7.00;;
42602;SDS011;28233;55.748;48.752;2023-03-09T00:06:56;10.20;;;5.90;;
42602;SDS011;28233;55.748;48.752;2023-03-09T00:08:59;10.20;;;6.05;;
42602;SDS011;28233;55.748;48.752;2023-03-09T00:11:03;9.07;;;5.43;;
42602;SDS011;28233;55.748;48.752;2023-03-09T00:13:06;10.65;;;5.95;;
42602;SDS011;28233;55.748;48.752;2023-03-09T00:15:09;9.75;;;5.93;;
42602;SDS011;28233;55.748;48.752;2023-03-09T00:17:12;9.15;;;4.85;;
42602;SDS011;28233;55.748;48.752;2023-03-09T00:19:15;7.05;;;4.63;;
42602;SDS011;28233;55.748;48.752;2023-03-09T00:21:29;8.55;;;5.28;;
42602;SDS011;28233;55.748;48.752;2023-03-09T00:23:43;11.93;;;6.50;;
42602;SDS011;28233;55.748;48.752;2023-03-09T00:25:48;10.50;;;6.70;;
42602;SDS011;28233;55.748;48.752;2023-03-09T00:27:51;8.77;;;5.03;;
42602;SDS011;28233;55.748;48.752;2023-03-09T00:29:54;8.07;;;5.38;;
42602;SDS011;28233;55.748;48.752;2023-03-09T00:31:57;8.32;;;5.10;;
42602;SDS011;28233;55.748;48.752;2023-03-09T00:34:01;11.98;;;5.30;;
42602;SDS011;28233;55.748;48.752;2023-03-09T00:36:04;9.55;;;5.63;;
42602;SDS011;28233;55.748;48.752;2023-03-09T00:38:06;10.10;;;5.00;;
42602;SDS011;28233;55.748;48.752;2023-03-09T00:40:09;7.63;;;5.07;;
42602;SDS011;28233;55.748;48.752;2023-03-09T00:42:13;8.27;;;5.05;;
42602;SDS011;28233;55.748;48.752;2023-03-09T00:44:16;7.72;;;4.07;;
42602;SDS011;28233;55.748;48.752;2023-03-09T00:46:19;11.32;;;5.32;;
42602;SDS011;28233;55.748;48.752;2023-03-09T00:48:22;9.05;;;5.55;;
42602;SDS011;28233;55.748;48.752;2023-03-09T00:50:24;8.77;;;5.45;;
42602;SDS011;28233;55.748;48.752;2023-03-09T00:52:28;11.02;;;5.38;;
42602;SDS011;28233;55.748;48.752;2023-03-09T00:54:31;8.35;;;4.95;;
42602;SDS011;28233;55.748;48.752;2023-03-09T00:56:34;7.53;;;4.97;;
42602;SDS011;28233;55.748;48.752;2023-03-09T00:58:36;5.70;;;3.75;;
42602;SDS011;28233;55.748;48.752;2023-03-09T01:00:39;10.75;;;5.50;;
42602;SDS011;28233;55.748;48.752;2023-03-09T01:02:42;6.38;;;4.20;;
42602;SDS011;28233;55.748;48.752;2023-03-09T01:04:45;7.32;;;4.35;;
42602;SDS011;28233;55.748;48.752;2023-03-09T01:06:49;6.93;;;3.90;;
42602;SDS011;28233;55.748;48.752;2023-03-09T01:08:52;8.05;;;4.32;;
42602;SDS011;28233;55.748;48.752;2023-03-09T01:10:55;9.75;;;3.70;;
42602;SDS011;28233;55.748;48.752;2023-03-09T01:12:58;4.82;;;3.10;;
42602;SDS011;28233;55.748;48.752;2023-03-09T01:15:00;4.30;;;2.20;;
42602;SDS011;28233;55.748;48.752;2023-03-09T01:17:04;5.68;;;2.78;;
42602;SDS011;28233;55.748;48.752;2023-03-09T01:19:07;5.93;;;2.72;;
42602;SDS011;28233;55.748;48.752;2023-03-09T01:21:09;5.15;;;3.13;;
42602;SDS011;28233;55.748;48.752;2023-03-09T01:23:12;3.90;;;2.28;;
42602;SDS011;28233;55.748;48.752;2023-03-09T01:25:15;6.78;;;3.30;;
42602;SDS011;28233;55.748;48.752;2023-03-09T01:27:18;5.88;;;2.53;;
42602;SDS011;28233;55.748;48.752;2023-03-09T01:29:21;5.45;;;3.28;;
42602;SDS011;28233;55.748;48.752;2023-03-09T01:31:23;4.90;;;2.67;;
42602;SDS011;28233;55.748;48.752;2023-03-09T01:33:26;4.82;;;2.25;;
42602;SDS011;28233;55.748;48.752;2023-03-09T01:35:29;3.85;;;2.28;;
42602;SDS011;28233;55.748;48.752;2023-03-09T01:37:32;3.35;;;2.25;;
42602;SDS011;28233;55.748;48.752;2023-03-09T01:39:35;3.55;;;2.03;;
42602;SDS011;28233;55.748;48.752;2023-03-09T01:41:37;2.60;;;1.52;;
42602;SDS011;28233;55.748;48.752;2023-03-09T01:43:41;3.50;;;1.90;;
42602;SDS011;28233;55.748;48.752;2023-03-09T01:47:51;3.78;;;2.15;;
42602;SDS011;28233;55.748;48.752;2023-03-09T01:49:54;3.47;;;1.98;;
42602;SDS011;28233;55.748;48.752;2023-03-09T01:54:10;3.53;;;1.67;;
42602;SDS011;28233;55.748;48.752;2023-03-09T01:56:18;2.63;;;1.60;;
42602;SDS011;28233;55.748;48.752;2023-03-09T01:58:24;2.60;;;1.58;;
42602;SDS011;28233;55.748;48.752;2023-03-09T02:00:30;3.15;;;1.30;;
42602;SDS011;28233;55.748;48.752;2023-03-09T02:02:37;2.30;;;1.50;;
42602;SDS011;28233;55.748;48.752;2023-03-09T02:04:44;2.72;;;1.67;;
42602;SDS011;28233;55.748;48.752;2023-03-09T02:06:49;2.40;;;1.45;;
42602;SDS011;28233;55.748;48.752;2023-03-09T02:09:54;3.47;;;1.65;;
42602;SDS011;28233;55.748;48.752;2023-03-09T02:11:40;3.75;;;2.13;;
42602;SDS011;28233;55.748;48.752;2023-03-09T02:13:46;4.15;;;2.47;;
42602;SDS011;28233;55.748;48.752;2023-03-09T02:15:51;2.67;;;1.83;;
42602;SDS011;28233;55.748;48.752;2023-03-09T02:17:53;3.35;;;2.22;;
42602;SDS011;28233;55.748;48.752;2023-03-09T02:22:14;4.45;;;2.35;;
42602;SDS011;28233;55.748;48.752;2023-03-09T02:26:43;7.05;;;2.83;;
42602;SDS011;28233;55.748;48.752;2023-03-09T02:28:50;5.25;;;2.50;;
42602;SDS011;28233;55.748;48.752;2023-03-09T02:30:53;4.03;;;3.25;;
42602;SDS011;28233;55.748;48.752;2023-03-09T02:33:10;6.15;;;3.30;;
42602;SDS011;28233;55.748;48.752;2023-03-09T02:35:22;4.70;;;3.00;;
42602;SDS011;28233;55.748;48.752;2023-03-09T02:37:30;6.30;;;3.55;;
42602;SDS011;28233;55.748;48.752;2023-03-09T02:39:38;3.38;;;2.22;;
42602;SDS011;28233;55.748;48.752;2023-03-09T02:41:45;7.05;;;3.88;;
42602;SDS011;28233;55.748;48.752;2023-03-09T02:43:52;6.88;;;4.10;;
42602;SDS011;28233;55.748;48.752;2023-03-09T02:45:57;7.18;;;3.75;;
42602;SDS011;28233;55.748;48.752;2023-03-09T02:48:00;5.93;;;3.92;;
42602;SDS011;28233;55.748;48.752;2023-03-09T02:50:03;10.65;;;4.43;;
42602;SDS011;28233;55.748;48.752;2023-03-09T02:52:06;6.97;;;3.65;;
42602;SDS011;28233;55.748;48.752;2023-03-09T02:54:08;6.90;;;3.75;;
42602;SDS011;28233;55.748;48.752;2023-03-09T02:56:11;8.75;;;3.78;;
42602;SDS011;28233;55.748;48.752;2023-03-09T02:58:14;6.10;;;3.55;;
42602;SDS011;28233;55.748;48.752;2023-03-09T03:00:16;8.40;;;4.43;;
42602;SDS011;28233;55.748;48.752;2023-03-09T03:02:23;10.13;;;4.35;;
42602;SDS011;28233;55.748;48.752;2023-03-09T03:04:26;11.07;;;4.78;;
42602;SDS011;28233;55.748;48.752;2023-03-09T03:06:28;8.35;;;5.18;;
42602;SDS011;28233;55.748;48.752;2023-03-09T03:08:31;8.52;;;4.47;;
42602;SDS011;28233;55.748;48.752;2023-03-09T03:10:38;8.77;;;4.45;;
42602;SDS011;28233;55.748;48.752;2023-03-09T03:12:41;8.57;;;4.25;;
42602;SDS011;28233;55.748;48.752;2023-03-09T03:14:44;9.05;;;5.28;;
42602;SDS011;28233;55.748;48.752;2023-03-09T03:16:47;12.00;;;4.97;;
42602;SDS011;28233;55.748;48.752;2023-03-09T03:18:50;8.52;;;5.15;;
42602;SDS011;28233;55.748;48.752;2023-03-09T03:20:52;6.57;;;3.55;;
42602;SDS011;28233;55.748;48.752;2023-03-09T03:22:55;10.68;;;4.38;;
42602;SDS011;28233;55.748;48.752;2023-03-09T03:24:58;11.00;;;5.70;;
42602;SDS011;28233;55.748;48.752;2023-03-09T03:27:01;9.18;;;5.03;;
42602;SDS011;28233;55.748;48.752;2023-03-09T03:29:04;8.88;;;4.93;;
42602;SDS011;28233;55.748;48.752;2023-03-09T03:31:06;10.45;;;4.80;;
42602;SDS011;28233;55.748;48.752;2023-03-09T03:33:09;10.93;;;5.25;;
42602;SDS011;28233;55.748;48.752;2023-03-09T03:35:12;9.15;;;4.55;;
42602;SDS011;28233;55.748;48.752;2023-03-09T03:37:14;11.55;;;5.47;;
42602;SDS011;28233;55.748;48.752;2023-03-09T03:39:17;7.18;;;4.03;;
42602;SDS011;28233;55.748;48.752;2023-03-09T03:41:20;10.77;;;5.07;;
42602;SDS011;28233;55.748;48.752;2023-03-09T03:43:22;10.98;;;5.45;;
42602;SDS011;28233;55.748;48.752;2023-03-09T03:45:25;10.63;;;5.43;;
42602;SDS011;28233;55.748;48.752;2023-03-09T03:47:28;8.85;;;5.22;;
42602;SDS011;28233;55.748;48.752;2023-03-09T03:49:31;13.75;;;5.45;;
42602;SDS011;28233;55.748;48.752;2023-03-09T03:51:33;10.90;;;5.05;;
42602;SDS011;28233;55.748;48.752;2023-03-09T03:53:36;10.15;;;5.50;;
42602;SDS011;28233;55.748;48.752;2023-03-09T03:55:38;10.10;;;4.97;;
42602;SDS011;28233;55.748;48.752;2023-03-09T03:57:41;11.50;;;5.13;;
42602;SDS011;28233;55.748;48.752;2023-03-09T03:59:44;11.57;;;5.38;;
42602;SDS011;28233;55.748;48.752;2023-03-09T04:01:46;10.18;;;5.72;;
42602;SDS011;28233;55.748;48.752;2023-03-09T04:03:49;10.88;;;5.80;;
42602;SDS011;28233;55.748;48.752;2023-03-09T04:05:52;11.38;;;5.63;;
42602;SDS011;28233;55.748;48.752;2023-03-09T04:07:54;10.18;;;5.18;;
42602;SDS011;28233;55.748;48.752;2023-03-09T04:09:57;9.18;;;4.68;;
42602;SDS011;28233;55.748;48.752;2023-03-09T04:12:00;10.90;;;5.53;;
42602;SDS011;28233;55.748;48.752;2023-03-09T04:14:03;8.88;;;4.88;;
42602;SDS011;28233;55.748;48.752;2023-03-09T04:16:05;8.95;;;5.03;;
42602;SDS011;28233;55.748;48.752;2023-03-09T04:18:08;11.50;;;5.97;;
42602;SDS011;28233;55.748;48.752;2023-03-09T04:20:11;9.15;;;4.68;;
42602;SDS011;28233;55.748;48.752;2023-03-09T04:22:14;10.50;;;5.15;;
42602;SDS011;28233;55.748;48.752;2023-03-09T04:24:17;9.95;;;5.45;;
42602;SDS011;28233;55.748;48.752;2023-03-09T04:26:19;12.20;;;5.13;;
42602;SDS011;28233;55.748;48.752;2023-03-09T04:28:22;9.35;;;5.13;;
42602;SDS011;28233;55.748;48.752;2023-03-09T04:30:25;10.82;;;5.30;;
42602;SDS011;28233;55.748;48.752;2023-03-09T04:32:28;8.82;;;4.68;;
42602;SDS011;28233;55.748;48.752;2023-03-09T04:34:31;10.60;;;5.20;;
42602;SDS011;28233;55.748;48.752;2023-03-09T04:36:33;9.95;;;5.10;;
42602;SDS011;28233;55.748;48.752;2023-03-09T04:38:36;10.65;;;5.25;;
42602;SDS011;28233;55.748;48.752;2023-03-09T04:40:40;9.00;;;5.35;;
42602;SDS011;28233;55.748;48.752;2023-03-09T04:42:43;11.48;;;4.95;;
42602;SDS011;28233;55.748;48.752;2023-03-09T04:44:45;9.50;;;4.82;;
42602;SDS011;28233;55.748;48.752;2023-03-09T04:46:48;9.45;;;4.97;;
42602;SDS011;28233;55.748;48.752;2023-03-09T04:48:51;10.95;;;5.18;;
42602;SDS011;28233;55.748;48.752;2023-03-09T04:50:53;13.23;;;5.13;;
42602;SDS011;28233;55.748;48.752;2023-03-09T04:52:56;8.63;;;4.95;;
42602;SDS011;28233;55.748;48.752;2023-03-09T04:54:59;12.15;;;6.40;;
42602;SDS011;28233;55.748;48.752;2023-03-09T04:57:03;12.45;;;5.53;;
42602;SDS011;28233;55.748;48.752;2023-03-09T04:59:06;10.85;;;6.10;;
42602;SDS011;28233;55.748;48.752;2023-03-09T05:01:08;11.48;;;5.80;;
42602;SDS011;28233;55.748;48.752;2023-03-09T05:03:11;11.70;;;5.47;;
42602;SDS011;28233;55.748;48.752;2023-03-09T05:05:14;9.07;;;5.40;;
42602;SDS011;28233;55.748;48.752;2023-03-09T05:07:18;10.38;;;5.72;;
42602;SDS011;28233;55.748;48.752;2023-03-09T05:09:21;10.82;;;5.47;;
42602;SDS011;28233;55.748;48.752;2023-03-09T05:11:24;10.13;;;5.07;;
42602;SDS011;28233;55.748;48.752;2023-03-09T05:13:26;10.65;;;5.47;;
42602;SDS011;28233;55.748;48.752;2023-03-09T05:15:29;9.32;;;5.15;;
42602;SDS011;28233;55.748;48.752;2023-03-09T05:17:32;9.02;;;5.88;;
42602;SDS011;28233;55.748;48.752;2023-03-09T05:19:34;8.63;;;5.15;;
42602;SDS011;28233;55.748;48.752;2023-03-09T05:21:39;12.40;;;5.63;;
42602;SDS011;28233;55.748;48.752;2023-03-09T05:23:42;9.60;;;4.95;;
42602;SDS011;28233;55.748;48.752;2023-03-09T05:25:54;10.75;;;5.32;;
42602;SDS011;28233;55.748;48.752;2023-03-09T05:28:00;13.07;;;7.10;;
42602;SDS011;28233;55.748;48.752;2023-03-09T05:30:03;12.40;;;6.40;;
42602;SDS011;28233;55.748;48.752;2023-03-09T05:32:07;11.77;;;6.28;;
42602;SDS011;28233;55.748;48.752;2023-03-09T05:34:10;14.40;;;7.03;;
42602;SDS011;28233;55.748;48.752;2023-03-09T05:36:17;14.32;;;7.22;;
42602;SDS011;28233;55.748;48.752;2023-03-09T05:38:22;17.30;;;6.00;;
42602;SDS011;28233;55.748;48.752;2023-03-09T05:40:25;13.95;;;6.70;;
42602;SDS011;28233;55.748;48.752;2023-03-09T05:42:27;16.05;;;7.13;;
42602;SDS011;28233;55.748;48.752;2023-03-09T05:44:30;13.23;;;6.35;;
42602;SDS011;28233;55.748;48.752;2023-03-09T05:46:32;13.20;;;6.13;;
42602;SDS011;28233;55.748;48.752;2023-03-09T05:48:36;16.67;;;8.07;;
42602;SDS011;28233;55.748;48.752;2023-03-09T05:50:39;14.98;;;7.85;;
42602;SDS011;28233;55.748;48.752;2023-03-09T05:52:42;15.77;;;7.35;;
42602;SDS011;28233;55.748;48.752;2023-03-09T05:54:45;18.45;;;7.95;;
42602;SDS011;28233;55.748;48.752;2023-03-09T05:56:48;17.52;;;8.07;;
42602;SDS011;28233;55.748;48.752;2023-03-09T05:58:51;15.23;;;8.15;;
42602;SDS011;28233;55.748;48.752;2023-03-09T06:00:53;19.23;;;9.80;;
42602;SDS011;28233;55.748;48.752;2023-03-09T06:02:56;21.20;;;9.55;;
42602;SDS011;28233;55.748;48.752;2023-03-09T06:04:59;19.45;;;8.82;;
42602;SDS011;28233;55.748;48.752;2023-03-09T06:07:02;14.40;;;7.50;;
42602;SDS011;28233;55.748;48.752;2023-03-09T06:09:04;14.60;;;6.88;;
42602;SDS011;28233;55.748;48.752;2023-03-09T06:11:08;20.35;;;9.63;;
42602;SDS011;28233;55.748;48.752;2023-03-09T06:13:10;18.45;;;10.18;;
42602;SDS011;28233;55.748;48.752;2023-03-09T06:15:13;15.50;;;7.72;;
42602;SDS011;28233;55.748;48.752;2023-03-09T06:17:16;17.60;;;9.32;;
42602;SDS011;28233;55.748;48.752;2023-03-09T06:19:19;18.48;;;9.07;;
42602;SDS011;28233;55.748;48.752;2023-03-09T06:21:22;21.70;;;9.48;;
42602;SDS011;28233;55.748;48.752;2023-03-09T06:23:24;19.60;;;8.88;;
42602;SDS011;28233;55.748;48.752;2023-03-09T06:25:27;15.80;;;8.48;;
42602;SDS011;28233;55.748;48.752;2023-03-09T06:27:30;17.98;;;8.52;;
42602;SDS011;28233;55.748;48.752;2023-03-09T06:29:36;18.90;;;8.80;;
42602;SDS011;28233;55.748;48.752;2023-03-09T06:31:39;17.70;;;8.68;;
42602;SDS011;28233;55.748;48.752;2023-03-09T06:33:43;14.80;;;8.38;;
42602;SDS011;28233;55.748;48.752;2023-03-09T06:35:46;19.10;;;9.75;;
42602;SDS011;28233;55.748;48.752;2023-03-09T06:37:49;18.48;;;8.80;;
42602;SDS011;28233;55.748;48.752;2023-03-09T06:39:52;18.70;;;9.20;;
42602;SDS011;28233;55.748;48.752;2023-03-09T06:41:54;21.60;;;10.07;;
42602;SDS011;28233;55.748;48.752;2023-03-09T06:43:57;25.80;;;9.40;;
42602;SDS011;28233;55.748;48.752;2023-03-09T06:46:01;19.17;;;10.23;;
42602;SDS011;28233;55.748;48.752;2023-03-09T06:48:03;19.45;;;10.10;;
42602;SDS011;28233;55.748;48.752;2023-03-09T06:50:06;20.25;;;9.85;;
42602;SDS011;28233;55.748;48.752;2023-03-09T06:52:09;19.23;;;9.40;;
42602;SDS011;28233;55.748;48.752;2023-03-09T06:54:13;17.05;;;8.93;;
42602;SDS011;28233;55.748;48.752;2023-03-09T06:56:16;19.13;;;9.95;;
42602;SDS011;28233;55.748;48.752;2023-03-09T06:58:19;16.58;;;9.60;;
42602;SDS011;28233;55.748;48.752;2023-03-09T07:00:22;18.90;;;10.52;;
42602;SDS011;28233;55.748;48.752;2023-03-09T07:02:24;16.77;;;8.85;;
42602;SDS011;28233;55.748;48.752;2023-03-09T07:04:27;24.45;;;10.82;;
42602;SDS011;28233;55.748;48.752;2023-03-09T07:06:30;20.30;;;10.27;;
42602;SDS011;28233;55.748;48.752;2023-03-09T07:08:32;19.75;;;9.63;;
42602;SDS011;28233;55.748;48.752;2023-03-09T07:10:35;18.30;;;9.85;;
42602;SDS011;28233;55.748;48.752;2023-03-09T07:12:38;19.88;;;9.10;;
42602;SDS011;28233;55.748;48.752;2023-03-09T07:14:41;24.63;;;11.57;;
42602;SDS011;28233;55.748;48.752;2023-03-09T07:16:50;19.50;;;9.75;;
42602;SDS011;28233;55.748;48.752;2023-03-09T07:18:54;20.75;;;9.82;;
42602;SDS011;28233;55.748;48.752;2023-03-09T07:21:00;20.95;;;10.82;;
42602;SDS011;28233;55.748;48.752;2023-03-09T07:23:04;19.52;;;10.13;;
42602;SDS011;28233;55.748;48.752;2023-03-09T07:25:08;20.88;;;10.55;;
42602;SDS011;28233;55.748;48.752;2023-03-09T07:27:13;17.83;;;9.00;;
42602;SDS011;28233;55.748;48.752;2023-03-09T07:29:18;20.80;;;9.98;;
42602;SDS011;28233;55.748;48.752;2023-03-09T07:31:23;21.15;;;10.43;;
42602;SDS011;28233;55.748;48.752;2023-03-09T07:33:26;15.05;;;9.07;;
42602;SDS011;28233;55.748;48.752;2023-03-09T07:35:39;20.33;;;10.27;;
42602;SDS011;28233;55.748;48.752;2023-03-09T07:37:42;20.85;;;10.75;;
42602;SDS011;28233;55.748;48.752;2023-03-09T07:39:46;18.55;;;9.77;;
42602;SDS011;28233;55.748;48.752;2023-03-09T07:41:50;20.30;;;10.70;;
42602;SDS011;28233;55.748;48.752;2023-03-09T07:43:52;14.77;;;7.43;;
42602;SDS011;28233;55.748;48.752;2023-03-09T07:45:55;5.95;;;2.47;;
42602;SDS011;28233;55.748;48.752;2023-03-09T07:47:58;5.25;;;2.17;;
42602;SDS011;28233;55.748;48.752;2023-03-09T07:50:00;1.38;;;0.82;;
42602;SDS011;28233;55.748;48.752;2023-03-09T07:52:04;3.60;;;0.80;;
42602;SDS011;28233;55.748;48.752;2023-03-09T07:54:07;3.25;;;1.10;;
42602;SDS011;28233;55.748;48.752;2023-03-09T07:56:10;1.40;;;0.80;;
42602;SDS011;28233;55.748;48.752;2023-03-09T07:58:16;1.95;;;0.98;;
42602;SDS011;28233;55.748;48.752;2023-03-09T08:00:19;1.88;;;0.60;;
42602;SDS011;28233;55.748;48.752;2023-03-09T08:02:25;3.25;;;1.00;;
42602;SDS011;28233;55.748;48.752;2023-03-09T08:04:28;3.58;;;0.95;;
42602;SDS011;28233;55.748;48.752;2023-03-09T08:06:33;3.83;;;1.00;;
42602;SDS011;28233;55.748;48.752;2023-03-09T08:08:36;1.83;;;0.90;;
42602;SDS011;28233;55.748;48.752;2023-03-09T08:10:38;5.30;;;1.45;;
42602;SDS011;28233;55.748;48.752;2023-03-09T08:12:42;1.67;;;0.68;;
42602;SDS011;28233;55.748;48.752;2023-03-09T08:14:53;2.83;;;0.98;;
42602;SDS011;28233;55.748;48.752;2023-03-09T08:16:56;3.20;;;1.13;;
42602;SDS011;28233;55.748;48.752;2023-03-09T08:19:01;3.90;;;0.80;;
42602;SDS011;28233;55.748;48.752;2023-03-09T08:23:10;1.45;;;0.80;;
42602;SDS011;28233;55.748;48.752;2023-03-09T08:25:15;1.65;;;1.00;;
42602;SDS011;28233;55.748;48.752;2023-03-09T08:27:19;2.30;;;1.10;;
42602;SDS011;28233;55.748;48.752;2023-03-09T08:29:22;6.15;;;2.10;;
42602;SDS011;28233;55.748;48.752;2023-03-09T08:31:25;2.90;;;1.63;;
42602;SDS011;28233;55.748;48.752;2023-03-09T08:33:28;5.97;;;1.42;;
42602;SDS011;28233;55.748;48.752;2023-03-09T08:35:31;5.68;;;1.85;;
42602;SDS011;28233;55.748;48.752;2023-03-09T08:37:34;2.38;;;1.50;;
42602;SDS011;28233;55.748;48.752;2023-03-09T08:39:37;3.15;;;1.15;;
42602;SDS011;28233;55.748;48.752;2023-03-09T08:41:40;2.78;;;1.52;;
42602;SDS011;28233;55.748;48.752;2023-03-09T08:43:42;2.25;;;1.20;;
42602;SDS011;28233;55.748;48.752;2023-03-09T08:45:45;2.50;;;1.27;;
42602;SDS011;28233;55.748;48.752;2023-03-09T08:47:48;2.67;;;1.50;;
42602;SDS011;28233;55.748;48.752;2023-03-09T08:49:51;4.75;;;1.63;;
42602;SDS011;28233;55.748;48.752;2023-03-09T08:51:58;4.03;;;1.83;;
42602;SDS011;28233;55.748;48.752;2023-03-09T08:54:01;3.88;;;2.00;;
42602;SDS011;28233;55.748;48.752;2023-03-09T08:56:08;3.22;;;1.73;;
42602;SDS011;28233;55.748;48.752;2023-03-09T08:58:13;3.33;;;2.00;;
42602;SDS011;28233;55.748;48.752;2023-03-09T09:00:16;4.10;;;1.90;;
42602;SDS011;28233;55.748;48.752;2023-03-09T09:02:20;3.22;;;1.85;;
42602;SDS011;28233;55.748;48.752;2023-03-09T09:04:23;6.53;;;2.92;;
42602;SDS011;28233;55.748;48.752;2023-03-09T09:06:26;5.20;;;2.17;;
42602;SDS011;28233;55.748;48.752;2023-03-09T09:08:30;4.93;;;2.38;;
42602;SDS011;28233;55.748;48.752;2023-03-09T09:10:37;4.35;;;2.17;;
42602;SDS011;28233;55.748;48.752;2023-03-09T09:12:42;7.18;;;2.83;;
42602;SDS011;28233;55.748;48.752;2023-03-09T09:14:45;4.38;;;2.70;;
42602;SDS011;28233;55.748;48.752;2023-03-09T09:16:48;5.88;;;2.72;;
42602;SDS011;28233;55.748;48.752;2023-03-09T09:18:54;6.05;;;2.45;;
42602;SDS011;28233;55.748;48.752;2023-03-09T09:20:57;7.78;;;2.50;;
42602;SDS011;28233;55.748;48.752;2023-03-09T09:23:02;6.30;;;3.08;;
42602;SDS011;28233;55.748;48.752;2023-03-09T09:25:05;6.47;;;2.92;;
42602;SDS011;28233;55.748;48.752;2023-03-09T09:27:10;6.65;;;3.28;;
42602;SDS011;28233;55.748;48.752;2023-03-09T09:29:13;5.68;;;3.47;;
42602;SDS011;28233;55.748;48.752;2023-03-09T09:31:18;8.45;;;3.20;;
42602;SDS011;28233;55.748;48.752;2023-03-09T09:33:27;7.65;;;3.50;;
42602;SDS011;28233;55.748;48.752;2023-03-09T09:35:31;7.32;;;3.20;;
42602;SDS011;28233;55.748;48.752;2023-03-09T09:37:33;5.90;;;3.22;;
42602;SDS011;28233;55.748;48.752;2023-03-09T09:39:36;7.57;;;3.85;;
42602;SDS011;28233;55.748;48.752;2023-03-09T09:41:41;8.18;;;3.72;;
42602;SDS011;28233;55.748;48.752;2023-03-09T09:43:48;7.22;;;3.78;;
42602;SDS011;28233;55.748;48.752;2023-03-09T09:45:54;5.93;;;3.28;;
42602;SDS011;28233;55.748;48.752;2023-03-09T09:48:01;7.18;;;4.15;;
42602;SDS011;28233;55.748;48.752;2023-03-09T09:50:09;8.30;;;4.70;;
42602;SDS011;28233;55.748;48.752;2023-03-09T09:54:51;9.00;;;5.30;;
42602;SDS011;28233;55.748;48.752;2023-03-09T09:57:10;9.30;;;4.85;;
42602;SDS011;28233;55.748;48.752;2023-03-09T10:01:54;10.45;;;5.78;;
42602;SDS011;28233;55.748;48.752;2023-03-09T10:06:55;11.27;;;6.65;;
42602;SDS011;28233;55.748;48.752;2023-03-09T10:09:06;10.82;;;6.40;;
42602;SDS011;28233;55.748;48.752;2023-03-09T10:13:37;15.40;;;9.32;;
42602;SDS011;28233;55.748;48.752;2023-03-09T10:15:48;15.88;;;9.02;;
42602;SDS011;28233;55.748;48.752;2023-03-09T10:18:11;18.23;;;9.10;;
42602;SDS011;28233;55.748;48.752;2023-03-09T10:22:52;21.15;;;9.80;;
42602;SDS011;28233;55.748;48.752;2023-03-09T10:24:58;19.05;;;9.93;;
42602;SDS011;28233;55.748;48.752;2023-03-09T10:27:06;18.40;;;10.85;;
42602;SDS011;28233;55.748;48.752;2023-03-09T10:29:25;16.25;;;9.43;;
42602;SDS011;28233;55.748;48.752;2023-03-09T10:34:02;19.50;;;9.63;;
42602;SDS011;28233;55.748;48.752;2023-03-09T10:36:17;17.65;;;9.25;;
42602;SDS011;28233;55.748;48.752;2023-03-09T10:38:31;17.90;;;10.55;;
42602;SDS011;28233;55.748;48.752;2023-03-09T10:40:37;18.80;;;10.10;;
42602;SDS011;28233;55.748;48.752;2023-03-09T10:42:44;25.88;;;10.80;;
42602;SDS011;28233;55.748;48.752;2023-03-09T10:44:57;16.67;;;9.52;;
42602;SDS011;28233;55.748;48.752;2023-03-09T10:47:05;20.67;;;11.43;;
42602;SDS011;28233;55.748;48.752;2023-03-09T10:49:08;17.25;;;10.43;;
42602;SDS011;28233;55.748;48.752;2023-03-09T10:51:27;20.88;;;10.95;;
42602;SDS011;28233;55.748;48.752;2023-03-09T10:53:38;21.13;;;10.82;;
42602;SDS011;28233;55.748;48.752;2023-03-09T10:57:54;21.58;;;11.13;;
42602;SDS011;28233;55.748;48.752;2023-03-09T11:00:10;20.88;;;10.48;;
42602;SDS011;28233;55.748;48.752;2023-03-09T11:02:29;21.77;;;10.57;;
42602;SDS011;28233;55.748;48.752;2023-03-09T11:04:34;20.98;;;11.68;;
42602;SDS011;28233;55.748;48.752;2023-03-09T11:06:39;21.10;;;11.07;;
42602;SDS011;28233;55.748;48.752;2023-03-09T11:08:42;19.83;;;10.93;;
42602;SDS011;28233;55.748;48.752;2023-03-09T11:11:06;21.55;;;11.50;;
42602;SDS011;28233;55.748;48.752;2023-03-09T11:13:18;20.17;;;11.82;;
42602;SDS011;28233;55.748;48.752;2023-03-09T11:15:29;16.58;;;9.40;;
42602;SDS011;28233;55.748;48.752;2023-03-09T11:17:38;17.80;;;9.88;;
42602;SDS011;28233;55.748;48.752;2023-03-09T11:19:43;13.38;;;7.82;;
42602;SDS011;28233;55.748;48.752;2023-03-09T11:22:05;14.43;;;8.70;;
42602;SDS011;28233;55.748;48.752;2023-03-09T11:24:14;17.95;;;9.05;;
42602;SDS011;28233;55.748;48.752;2023-03-09T11:26:24;15.75;;;8.57;;
42602;SDS011;28233;55.748;48.752;2023-03-09T11:28:38;13.90;;;8.32;;
42602;SDS011;28233;55.748;48.752;2023-03-09T11:31:10;15.85;;;8.48;;
42602;SDS011;28233;55.748;48.752;2023-03-09T11:33:25;13.25;;;7.22;;
42602;SDS011;28233;55.748;48.752;2023-03-09T11:35:31;12.50;;;8.20;;
42602;SDS011;28233;55.748;48.752;2023-03-09T11:37:37;17.88;;;7.22;;
42602;SDS011;28233;55.748;48.752;2023-03-09T11:39:47;18.00;;;7.90;;
42602;SDS011;28233;55.748;48.752;2023-03-09T11:42:07;12.60;;;7.43;;
42602;SDS011;28233;55.748;48.752;2023-03-09T11:44:19;10.40;;;7.03;;
42602;SDS011;28233;55.748;48.752;2023-03-09T11:46:32;12.82;;;7.43;;
42602;SDS011;28233;55.748;48.752;2023-03-09T11:48:38;12.25;;;7.55;;
42602;SDS011;28233;55.748;48.752;2023-03-09T11:53:21;13.50;;;7.28;;
42602;SDS011;28233;55.748;48.752;2023-03-09T11:55:41;11.63;;;7.57;;
42602;SDS011;28233;55.748;48.752;2023-03-09T11:57:47;13.18;;;7.57;;
42602;SDS011;28233;55.748;48.752;2023-03-09T12:00:00;13.07;;;7.40;;
42602;SDS011;28233;55.748;48.752;2023-03-09T12:04:19;12.85;;;7.35;;
42602;SDS011;28233;55.748;48.752;2023-03-09T12:08:41;12.40;;;7.15;;
42602;SDS011;28233;55.748;48.752;2023-03-09T12:10:50;13.20;;;7.40;;
42602;SDS011;28233;55.748;48.752;2023-03-09T12:13:02;16.05;;;7.97;;
42602;SDS011;28233;55.748;48.752;2023-03-09T12:19:55;9.75;;;5.72;;
42602;SDS011;28233;55.748;48.752;2023-03-09T12:22:14;11.68;;;6.22;;
42602;SDS011;28233;55.748;48.752;2023-03-09T12:24:22;10.35;;;6.55;;
42602;SDS011;28233;55.748;48.752;2023-03-09T12:26:33;12.85;;;5.95;;
42602;SDS011;28233;55.748;48.752;2023-03-09T12:28:36;11.63;;;6.63;;
42602;SDS011;28233;55.748;48.752;2023-03-09T12:30:50;12.15;;;6.78;;
42602;SDS011;28233;55.748;48.752;2023-03-09T12:32:56;12.52;;;7.32;;
42602;SDS011;28233;55.748;48.752;2023-03-09T12:39:38;10.43;;;6.40;;
42602;SDS011;28233;55.748;48.752;2023-03-09T12:41:54;11.82;;;6.97;;
42602;SDS011;28233;55.748;48.752;2023-03-09T12:44:09;9.50;;;6.88;;
42602;SDS011;28233;55.748;48.752;2023-03-09T12:48:41;10.93;;;5.95;;
42602;SDS011;28233;55.748;48.752;2023-03-09T12:52:53;9.20;;;6.15;;
42602;SDS011;28233;55.748;48.752;2023-03-09T12:57:21;8.98;;;4.93;;
42602;SDS011;28233;55.748;48.752;2023-03-09T12:59:25;9.70;;;5.95;;
42602;SDS011;28233;55.748;48.752;2023-03-09T13:01:30;12.82;;;7.00;;
42602;SDS011;28233;55.748;48.752;2023-03-09T13:05:55;11.88;;;6.85;;
42602;SDS011;28233;55.748;48.752;2023-03-09T13:08:02;10.90;;;6.15;;
42602;SDS011;28233;55.748;48.752;2023-03-09T13:10:19;11.43;;;5.88;;